createdAt,value
2023-05-14T00:01:13.016Z,67.61
2023-05-14T00:03:44.086Z,67.72
2023-05-14T00:06:16.108Z,67.90
2023-05-14T00:08:47.083Z,68.15
2023-05-14T00:11:17.867Z,68.57
2023-05-14T00:13:48.409Z,68.72
2023-05-14T00:16:19.308Z,68.56
2023-05-14T00:18:50.547Z,68.58
2023-05-14T00:21:21.611Z,68.87
2023-05-14T00:23:52.611Z,68.97
2023-05-14T00:26:23.577Z,69.04
2023-05-14T00:28:54.843Z,69.23
2023-05-14T00:31:25.512Z,69.44
2023-05-14T00:33:56.216Z,69.53
2023-05-14T00:36:26.689Z,69.78
2023-05-14T00:38:57.179Z,69.98
2023-05-14T00:41:27.702Z,69.98
2023-05-14T00:43:58.130Z,70.19
2023-05-14T00:46:29.638Z,70.43
2023-05-14T00:49:01.312Z,70.37
2023-05-14T00:51:32.534Z,70.41
2023-05-14T00:54:03.696Z,70.56
2023-05-14T00:56:35.239Z,70.68
2023-05-14T00:59:06.179Z,70.74
2023-05-14T01:01:36.777Z,70.86
2023-05-14T01:04:08.500Z,71.04
2023-05-14T01:06:45.511Z,71.05
2023-05-14T01:09:19.894Z,71.07
2023-05-14T01:11:59.767Z,71.03
2023-05-14T01:14:39.358Z,71.14
2023-05-14T01:17:13.591Z,71.24
2023-05-14T01:19:45.326Z,71.26
2023-05-14T01:22:16.609Z,71.45
2023-05-14T01:24:47.608Z,71.44
2023-05-14T01:27:24.395Z,71.47
2023-05-14T01:30:05.137Z,71.52
2023-05-14T01:32:37.155Z,71.26
2023-05-14T01:35:10.600Z,71.48
2023-05-14T01:37:42.991Z,71.65
2023-05-14T01:40:14.458Z,71.59
2023-05-14T01:42:45.711Z,71.76
2023-05-14T01:45:16.339Z,71.78
2023-05-14T01:47:46.929Z,71.87
2023-05-14T01:50:17.858Z,71.94
2023-05-14T01:52:49.133Z,72.04
2023-05-14T01:55:20.202Z,72.10
2023-05-14T01:57:51.061Z,72.33
2023-05-14T02:00:24.940Z,72.59
2023-05-14T02:02:56.029Z,72.83
2023-05-14T02:05:26.667Z,73.09
2023-05-14T02:07:57.909Z,73.41
2023-05-14T02:10:29.295Z,73.65
2023-05-14T02:13:00.254Z,73.80
2023-05-14T02:15:31.463Z,73.91
2023-05-14T02:18:02.050Z,73.91
2023-05-14T02:20:32.639Z,73.87
2023-05-14T02:23:03.566Z,74.00
2023-05-14T02:25:34.182Z,74.37
2023-05-14T02:28:05.097Z,74.56
2023-05-14T02:30:35.634Z,74.53
2023-05-14T02:33:06.439Z,74.85
2023-05-14T02:35:37.770Z,74.95
2023-05-14T02:38:08.297Z,75.09
2023-05-14T02:40:39.619Z,75.22
2023-05-14T02:43:10.890Z,75.24
2023-05-14T02:45:41.798Z,75.11
2023-05-14T02:48:12.514Z,74.77
2023-05-14T02:50:43.155Z,74.50
2023-05-14T02:53:14.485Z,74.40
2023-05-14T02:55:45.955Z,74.55
2023-05-14T02:58:17.099Z,74.56
2023-05-14T03:00:48.414Z,74.59
2023-05-14T03:03:19.819Z,74.75
2023-05-14T03:05:51.912Z,74.63
2023-05-14T03:08:22.468Z,74.75
2023-05-14T03:10:53.457Z,74.86
2023-05-14T03:13:24.309Z,75.10
2023-05-14T03:15:56.747Z,75.26
2023-05-14T03:18:30.551Z,75.50
2023-05-14T03:21:01.510Z,75.54
2023-05-14T03:23:34.954Z,75.64
2023-05-14T03:26:06.444Z,75.52
2023-05-14T03:28:37.093Z,75.47
2023-05-14T03:31:08.290Z,75.53
2023-05-14T03:33:39.362Z,75.77
2023-05-14T03:36:10.519Z,75.91
2023-05-14T03:38:41.136Z,76.11
2023-05-14T03:41:11.764Z,76.15
2023-05-14T03:43:42.400Z,76.31
2023-05-14T03:46:13.040Z,76.49
2023-05-14T03:48:44.678Z,76.45
2023-05-14T03:51:15.556Z,76.48
2023-05-14T03:53:46.260Z,76.64
2023-05-14T03:56:17.112Z,76.82
2023-05-14T03:58:48.042Z,77.02
2023-05-14T04:01:19.121Z,77.12
2023-05-14T04:03:50.041Z,77.17
2023-05-14T04:06:21.123Z,76.96
2023-05-14T04:08:52.127Z,76.77
2023-05-14T04:11:22.851Z,76.71
2023-05-14T04:13:53.433Z,76.85
2023-05-14T04:16:24.089Z,76.93
2023-05-14T04:18:54.773Z,77.13
2023-05-14T04:21:25.731Z,77.42
2023-05-14T04:23:56.481Z,77.68
2023-05-14T04:26:27.220Z,77.62
2023-05-14T04:28:58.408Z,77.82
2023-05-14T04:31:29.052Z,77.82
2023-05-14T04:33:59.700Z,77.87
2023-05-14T04:36:30.161Z,77.94
2023-05-14T04:39:00.662Z,78.05
2023-05-14T04:41:31.760Z,78.13
2023-05-14T04:44:04.457Z,78.06
2023-05-14T04:46:35.213Z,78.08
2023-05-14T04:49:06.129Z,78.05
2023-05-14T04:51:36.780Z,78.09
2023-05-14T04:54:07.380Z,78.13
2023-05-14T04:56:38.066Z,78.13
2023-05-14T04:59:09.161Z,78.28
2023-05-14T05:01:39.781Z,78.54
2023-05-14T05:04:10.610Z,78.64
2023-05-14T05:06:41.884Z,78.82
2023-05-14T05:09:12.531Z,78.85
2023-05-14T05:11:43.073Z,78.93
2023-05-14T05:14:14.119Z,78.76
2023-05-14T05:16:44.995Z,78.60
2023-05-14T05:19:16.058Z,78.74
2023-05-14T05:21:46.700Z,78.89
2023-05-14T05:24:17.599Z,78.74
2023-05-14T05:26:48.392Z,78.21
2023-05-14T05:29:18.982Z,78.19
2023-05-14T05:31:50.285Z,78.10
2023-05-14T05:34:20.910Z,77.67
2023-05-14T05:36:51.663Z,77.58
2023-05-14T05:39:22.497Z,77.70
2023-05-14T05:41:53.222Z,77.83
2023-05-14T05:44:23.801Z,77.84
2023-05-14T05:46:56.226Z,77.74
2023-05-14T05:49:27.539Z,77.67
2023-05-14T05:51:58.422Z,77.67
2023-05-14T05:54:29.554Z,77.62
2023-05-14T05:57:00.110Z,77.42
2023-05-14T05:59:31.159Z,76.71
2023-05-14T06:02:01.782Z,76.13
2023-05-14T06:04:32.489Z,75.75
2023-05-14T06:07:02.941Z,75.73
2023-05-14T06:09:33.657Z,75.72
2023-05-14T06:12:04.529Z,75.50
2023-05-14T06:14:35.108Z,75.33
2023-05-14T06:17:06.081Z,74.95
2023-05-14T06:19:36.939Z,74.95
2023-05-14T06:22:07.972Z,75.25
2023-05-14T06:24:38.914Z,74.96
2023-05-14T06:27:10.619Z,74.21
2023-05-14T06:29:41.143Z,74.00
2023-05-14T06:32:15.380Z,74.24
2023-05-14T06:34:46.463Z,74.11
2023-05-14T06:37:17.425Z,73.66
2023-05-14T06:39:50.225Z,73.65
2023-05-14T06:42:20.863Z,72.74
2023-05-14T06:44:51.651Z,71.76
2023-05-14T06:47:22.657Z,71.08
2023-05-14T06:49:53.304Z,70.57
2023-05-14T06:52:23.701Z,70.46
2023-05-14T06:54:54.508Z,69.79
2023-05-14T06:57:24.949Z,69.58
2023-05-14T06:59:55.556Z,69.54
2023-05-14T07:02:26.193Z,69.70
2023-05-14T07:04:56.832Z,70.11
2023-05-14T07:07:27.808Z,70.11
2023-05-14T07:09:58.325Z,69.27
2023-05-14T07:12:28.868Z,69.62
2023-05-14T07:14:59.386Z,70.03
2023-05-14T07:17:31.350Z,69.68
2023-05-14T07:20:01.981Z,69.64
2023-05-14T07:22:32.513Z,69.41
2023-05-14T07:25:03.307Z,69.71
2023-05-14T07:27:33.936Z,69.62
2023-05-14T07:30:05.397Z,69.51
2023-05-14T07:32:35.896Z,68.97
2023-05-14T07:35:08.076Z,68.90
2023-05-14T07:37:38.668Z,68.09
2023-05-14T07:40:11.181Z,67.81
2023-05-14T07:42:41.866Z,67.52
2023-05-14T07:45:13.510Z,67.43
2023-05-14T07:47:44.329Z,67.05
2023-05-14T07:50:17.376Z,66.89
2023-05-14T07:52:47.903Z,66.86
2023-05-14T07:55:18.728Z,66.15
2023-05-14T07:57:49.404Z,66.50
2023-05-14T08:00:21.344Z,65.91
2023-05-14T08:02:52.064Z,65.83
2023-05-14T08:05:22.816Z,65.10
2023-05-14T08:07:53.741Z,65.66
2023-05-14T08:10:24.900Z,65.58
2023-05-14T08:12:56.079Z,64.85
2023-05-14T08:15:27.986Z,64.59
2023-05-14T08:18:03.581Z,64.08
2023-05-14T08:20:34.872Z,64.55
2023-05-14T08:23:07.340Z,64.40
2023-05-14T08:25:39.913Z,63.59
2023-05-14T08:28:11.465Z,64.11
2023-05-14T08:30:42.055Z,63.70
2023-05-14T08:33:12.931Z,63.15
2023-05-14T08:35:43.436Z,62.70
2023-05-14T08:38:14.022Z,62.71
2023-05-14T08:40:50.591Z,62.34
2023-05-14T08:43:27.097Z,61.98
2023-05-14T08:46:02.071Z,61.82
2023-05-14T08:48:36.126Z,61.10
2023-05-14T08:51:07.824Z,60.92
2023-05-14T08:53:40.456Z,61.17
2023-05-14T08:56:12.810Z,59.35
2023-05-14T08:58:43.309Z,58.66
2023-05-14T09:01:15.546Z,57.08
2023-05-14T09:03:46.882Z,55.27
2023-05-14T09:06:18.097Z,55.51
2023-05-14T09:08:49.127Z,55.87
2023-05-14T09:11:20.084Z,55.46
2023-05-14T09:13:51.023Z,55.05
2023-05-14T09:16:23.141Z,55.19
2023-05-14T09:18:53.950Z,54.41
2023-05-14T09:21:24.636Z,53.25
2023-05-14T09:23:59.882Z,52.58
2023-05-14T09:26:35.009Z,52.50
2023-05-14T09:29:06.135Z,52.23
2023-05-14T09:31:37.426Z,51.97
2023-05-14T09:34:08.400Z,52.03
2023-05-14T09:36:39.323Z,52.11
2023-05-14T09:39:10.556Z,51.73
2023-05-14T09:41:40.973Z,52.48
2023-05-14T09:44:11.528Z,51.96
2023-05-14T09:46:42.579Z,51.58
2023-05-14T09:49:13.346Z,51.20
2023-05-14T09:51:44.563Z,51.04
2023-05-14T09:54:15.189Z,51.58
2023-05-14T09:56:46.375Z,51.92
2023-05-14T09:59:16.956Z,51.65
2023-05-14T10:01:48.637Z,51.72
2023-05-14T10:04:20.620Z,51.06
2023-05-14T10:06:54.187Z,50.74
2023-05-14T10:09:28.299Z,49.95
2023-05-14T10:12:02.079Z,49.86
2023-05-14T10:14:39.340Z,49.56
2023-05-14T10:17:18.062Z,49.40
2023-05-14T10:19:54.213Z,49.64
2023-05-14T10:22:28.384Z,49.33
2023-05-14T10:24:59.184Z,48.97
2023-05-14T10:27:30.438Z,48.49
2023-05-14T10:30:01.807Z,48.53
2023-05-14T10:32:37.810Z,48.11
2023-05-14T10:35:20.416Z,49.08
2023-05-14T10:37:53.711Z,48.72
2023-05-14T10:40:27.051Z,49.54
2023-05-14T10:43:02.330Z,48.50
2023-05-14T10:45:34.334Z,46.44
2023-05-14T10:48:05.850Z,46.38
2023-05-14T10:50:37.016Z,46.99
2023-05-14T10:53:11.623Z,47.66
2023-05-14T10:55:43.352Z,48.48
2023-05-14T10:58:14.770Z,48.91
2023-05-14T11:00:48.534Z,48.39
2023-05-14T11:03:22.189Z,47.53
2023-05-14T11:05:53.333Z,46.42
2023-05-14T11:08:29.410Z,46.68
2023-05-14T11:11:00.778Z,44.18
2023-05-14T11:13:32.258Z,43.77
2023-05-14T11:16:15.194Z,44.07
2023-05-14T11:19:02.867Z,44.89
2023-05-14T11:21:34.098Z,44.28
2023-05-14T11:24:05.603Z,43.53
2023-05-14T11:26:36.713Z,43.81
2023-05-14T11:29:07.487Z,42.59
2023-05-14T11:31:38.297Z,42.06
2023-05-14T11:34:10.516Z,42.31
2023-05-14T11:36:42.332Z,42.77
2023-05-14T11:39:20.499Z,42.94
2023-05-14T11:41:51.451Z,42.72
2023-05-14T11:44:22.163Z,43.14
2023-05-14T11:46:59.594Z,42.45
2023-05-14T11:49:29.080Z,42.31
2023-05-14T11:52:03.605Z,43.15
2023-05-14T11:54:35.171Z,42.79
2023-05-14T11:57:12.623Z,43.22
2023-05-14T11:59:41.785Z,42.79
2023-05-14T12:02:14.133Z,43.24
2023-05-14T12:04:45.940Z,43.01
2023-05-14T12:07:17.939Z,43.20
2023-05-14T12:09:50.777Z,42.20
2023-05-14T12:12:23.301Z,41.47
2023-05-14T12:14:54.347Z,42.27
2023-05-14T12:17:26.110Z,42.42
2023-05-14T12:19:58.502Z,42.43
2023-05-14T12:22:30.786Z,42.68
2023-05-14T12:25:02.543Z,42.95
2023-05-14T12:27:33.095Z,42.63
2023-05-14T12:30:20.116Z,43.65
2023-05-14T12:32:53.657Z,42.83
2023-05-14T12:35:24.986Z,42.52
2023-05-14T12:37:55.766Z,42.92
2023-05-14T12:40:26.812Z,42.44
2023-05-14T12:42:57.670Z,42.10
2023-05-14T12:45:28.638Z,42.09
2023-05-14T12:47:59.485Z,41.15
2023-05-14T12:50:30.538Z,41.34
2023-05-14T12:53:01.154Z,41.75
2023-05-14T12:55:31.597Z,41.56
2023-05-14T12:58:02.615Z,41.39
2023-05-14T13:00:33.722Z,40.79
2023-05-14T13:03:04.630Z,40.81
2023-05-14T13:05:36.299Z,41.22
2023-05-14T13:08:06.928Z,40.56
2023-05-14T13:10:37.925Z,40.09
2023-05-14T13:13:08.423Z,39.81
2023-05-14T13:15:39.924Z,39.97
2023-05-14T13:18:10.829Z,39.72
2023-05-14T13:20:43.243Z,39.63
2023-05-14T13:23:13.944Z,39.99
2023-05-14T13:25:44.567Z,40.30
2023-05-14T13:28:15.290Z,40.17
2023-05-14T13:31:06.959Z,39.45
2023-05-14T13:33:42.215Z,39.72
2023-05-14T13:36:14.216Z,39.57
2023-05-14T13:38:45.863Z,38.79
2023-05-14T13:41:16.741Z,38.30
2023-05-14T13:43:47.186Z,38.88
2023-05-14T13:46:18.066Z,38.60
2023-05-14T13:48:48.713Z,39.14
2023-05-14T13:51:19.525Z,40.00
2023-05-14T13:53:50.087Z,39.79
2023-05-14T13:56:21.428Z,40.02
2023-05-14T13:58:51.907Z,40.08
2023-05-14T14:01:26.653Z,40.81
2023-05-14T14:03:57.195Z,41.79
2023-05-14T14:06:28.404Z,41.96
2023-05-14T14:08:58.996Z,42.27
2023-05-14T14:11:29.769Z,43.00
2023-05-14T14:14:00.472Z,44.31
2023-05-14T14:16:31.138Z,44.76
2023-05-14T14:19:02.183Z,44.62
2023-05-14T14:21:32.992Z,44.66
2023-05-14T14:24:03.479Z,45.17
2023-05-14T14:26:34.401Z,44.36
2023-05-14T14:29:05.261Z,44.08
2023-05-14T14:31:37.676Z,43.94
2023-05-14T14:34:08.322Z,44.09
2023-05-14T14:36:38.945Z,42.21
2023-05-14T14:39:09.541Z,42.09
2023-05-14T14:41:40.574Z,42.56
2023-05-14T14:44:11.567Z,42.31
2023-05-14T14:46:43.415Z,41.10
2023-05-14T14:49:14.025Z,41.68
2023-05-14T14:51:46.921Z,41.54
2023-05-14T14:54:17.913Z,40.00
2023-05-14T14:56:49.283Z,40.67
2023-05-14T14:59:20.322Z,41.15
2023-05-14T15:01:51.121Z,42.22
2023-05-14T15:04:21.816Z,40.98
2023-05-14T15:06:52.625Z,41.17
2023-05-14T15:09:23.184Z,41.62
2023-05-14T15:11:54.158Z,40.65
2023-05-14T15:14:24.694Z,41.41
2023-05-14T15:16:55.728Z,41.42
2023-05-14T15:19:26.288Z,41.90
2023-05-14T15:21:57.126Z,41.74
2023-05-14T15:24:27.682Z,42.30
2023-05-14T15:26:58.898Z,42.16
2023-05-14T15:29:29.712Z,41.49
2023-05-14T15:32:00.405Z,41.49
2023-05-14T15:34:31.234Z,41.86
2023-05-14T15:37:01.737Z,40.91
2023-05-14T15:39:32.555Z,40.41
2023-05-14T15:42:03.167Z,41.53
2023-05-14T15:44:34.423Z,41.54
2023-05-14T15:47:07.328Z,41.45
2023-05-14T15:49:38.196Z,41.93
2023-05-14T15:52:09.282Z,41.80
2023-05-14T15:54:40.138Z,40.70
2023-05-14T15:57:11.181Z,40.04
2023-05-14T15:59:42.272Z,39.86
2023-05-14T16:02:13.712Z,40.61
2023-05-14T16:04:45.119Z,41.16
2023-05-14T16:07:16.347Z,40.56
2023-05-14T16:09:47.155Z,40.53
2023-05-14T16:12:17.703Z,40.16
2023-05-14T16:14:48.298Z,42.11
2023-05-14T16:17:19.168Z,43.41
2023-05-14T16:19:49.938Z,43.87
2023-05-14T16:22:20.531Z,44.64
2023-05-14T16:24:51.214Z,44.67
2023-05-14T16:27:23.965Z,45.34
2023-05-14T16:29:57.006Z,45.80
2023-05-14T16:32:30.707Z,44.08
2023-05-14T16:35:02.821Z,42.79
2023-05-14T16:37:33.818Z,43.95
2023-05-14T16:40:05.460Z,43.28
2023-05-14T16:42:36.261Z,43.48
2023-05-14T16:45:08.096Z,44.23
2023-05-14T16:47:38.673Z,45.36
2023-05-14T16:50:11.204Z,46.70
2023-05-14T16:52:42.172Z,49.35
2023-05-14T16:55:13.192Z,51.11
2023-05-14T16:57:44.774Z,52.21
2023-05-14T17:00:17.876Z,52.74
2023-05-14T17:02:51.012Z,53.04
2023-05-14T17:05:22.016Z,53.28
2023-05-14T17:07:52.728Z,54.08
2023-05-14T17:10:26.227Z,54.38
2023-05-14T17:12:56.931Z,54.63
2023-05-14T17:15:28.043Z,55.11
2023-05-14T17:17:58.916Z,55.31
2023-05-14T17:20:30.702Z,54.97
2023-05-14T17:23:01.608Z,55.22
2023-05-14T17:25:33.481Z,54.86
2023-05-14T17:28:04.406Z,55.25
2023-05-14T17:30:35.439Z,56.14
2023-05-14T17:33:06.664Z,56.64
2023-05-14T17:35:40.510Z,56.83
2023-05-14T17:38:11.249Z,57.00
2023-05-14T17:40:42.858Z,57.28
2023-05-14T17:43:13.437Z,56.83
2023-05-14T17:45:54.071Z,57.08
2023-05-14T17:48:27.823Z,57.12
2023-05-14T17:50:58.564Z,57.51
2023-05-14T17:53:29.207Z,57.43
2023-05-14T17:56:02.682Z,55.55
2023-05-14T17:58:33.400Z,55.25
2023-05-14T18:01:04.641Z,55.35
2023-05-14T18:03:35.554Z,55.36
2023-05-14T18:06:06.581Z,54.89
2023-05-14T18:08:37.988Z,53.63
2023-05-14T18:11:11.189Z,51.89
2023-05-14T18:13:41.869Z,51.77
2023-05-14T18:16:12.425Z,51.30
2023-05-14T18:18:43.421Z,50.44
2023-05-14T18:21:14.094Z,50.11
2023-05-14T18:23:45.081Z,49.54
2023-05-14T18:26:16.155Z,49.57
2023-05-14T18:28:49.388Z,49.69
2023-05-14T18:31:20.404Z,49.16
2023-05-14T18:33:51.488Z,49.43
2023-05-14T18:36:22.161Z,49.09
2023-05-14T18:38:52.677Z,49.09
2023-05-14T18:41:23.532Z,48.92
2023-05-14T18:43:54.115Z,48.83
2023-05-14T18:46:25.752Z,48.99
2023-05-14T18:48:56.602Z,49.44
2023-05-14T18:51:29.784Z,49.24
2023-05-14T18:54:00.432Z,49.22
2023-05-14T18:56:30.999Z,49.95
2023-05-14T18:59:01.970Z,51.37
2023-05-14T19:01:32.634Z,51.23
2023-05-14T19:04:05.145Z,52.15
2023-05-14T19:06:36.213Z,52.76
2023-05-14T19:09:06.976Z,52.61
2023-05-14T19:11:37.869Z,52.72
2023-05-14T19:14:09.395Z,52.84
2023-05-14T19:16:40.904Z,53.46
2023-05-14T19:19:11.875Z,53.77
2023-05-14T19:21:42.481Z,53.89
2023-05-14T19:24:13.040Z,54.24
2023-05-14T19:26:43.650Z,53.54
2023-05-14T19:29:16.462Z,54.04
2023-05-14T19:31:47.124Z,54.47
2023-05-14T19:34:18.037Z,55.15
2023-05-14T19:36:49.119Z,55.22
2023-05-14T19:39:19.974Z,55.21
2023-05-14T19:41:50.532Z,55.26
2023-05-14T19:44:21.844Z,55.60
2023-05-14T19:46:53.124Z,56.36
2023-05-14T19:49:23.715Z,56.75
2023-05-14T19:51:55.103Z,56.51
2023-05-14T19:54:25.691Z,56.46
2023-05-14T19:56:56.531Z,56.94
2023-05-14T19:59:29.525Z,56.69
2023-05-14T20:02:00.086Z,56.94
2023-05-14T20:04:31.434Z,57.30
2023-05-14T20:07:02.033Z,57.80
2023-05-14T20:09:32.607Z,58.35
2023-05-14T20:12:03.119Z,58.50
2023-05-14T20:14:33.763Z,58.77
2023-05-14T20:17:04.556Z,58.51
2023-05-14T20:20:55.925Z,59.64
2023-05-14T20:23:26.822Z,60.70
2023-05-14T20:25:57.414Z,61.69
2023-05-14T20:28:28.354Z,61.95
2023-05-14T20:31:00.338Z,62.02
2023-05-14T20:33:31.193Z,62.24
2023-05-14T20:36:04.281Z,61.94
2023-05-14T20:38:35.657Z,62.02
2023-05-14T20:41:06.433Z,62.55
2023-05-14T20:43:37.030Z,61.94
2023-05-14T20:46:07.682Z,61.65
2023-05-14T20:48:38.248Z,61.70
2023-05-14T20:51:08.915Z,62.09
2023-05-14T20:53:40.228Z,62.12
2023-05-14T20:56:10.940Z,62.30
2023-05-14T20:58:41.513Z,62.72
2023-05-14T21:01:12.836Z,62.66
2023-05-14T21:03:43.646Z,62.51
2023-05-14T21:06:16.951Z,62.61
2023-05-14T21:08:47.842Z,62.70
2023-05-14T21:11:18.400Z,62.89
2023-05-14T21:13:49.323Z,63.21
2023-05-14T21:16:20.310Z,63.52
2023-05-14T21:18:51.543Z,63.47
2023-05-14T21:21:22.166Z,63.59
2023-05-14T21:23:53.112Z,63.78
2023-05-14T21:26:24.496Z,63.84
2023-05-14T21:28:55.470Z,63.95
2023-05-14T21:31:26.437Z,64.10
2023-05-14T21:33:57.057Z,64.09
2023-05-14T21:36:27.653Z,64.02
2023-05-14T21:39:00.581Z,64.06
2023-05-14T21:41:31.481Z,64.17
2023-05-14T21:44:02.034Z,64.17
2023-05-14T21:46:32.933Z,64.16
2023-05-14T21:49:03.543Z,64.24
2023-05-14T21:51:34.728Z,64.17
2023-05-14T21:54:05.853Z,64.25
2023-05-14T21:56:37.816Z,64.34
2023-05-14T21:59:08.662Z,64.09
2023-05-14T22:01:55.548Z,64.50
2023-05-14T22:04:31.135Z,64.90
2023-05-14T22:07:01.774Z,65.03
2023-05-14T22:09:33.008Z,65.04
2023-05-14T22:12:03.580Z,65.05
2023-05-14T22:14:34.095Z,65.19
2023-05-14T22:17:05.131Z,65.27
2023-05-14T22:19:35.888Z,65.23
2023-05-14T22:22:06.945Z,65.11
2023-05-14T22:24:37.803Z,65.40
2023-05-14T22:27:08.546Z,66.08
2023-05-14T22:29:39.404Z,66.68
2023-05-14T22:32:10.329Z,67.28
2023-05-14T22:34:41.532Z,67.57
2023-05-14T22:37:12.912Z,67.86
2023-05-14T22:39:43.572Z,68.12
2023-05-14T22:42:14.074Z,68.05
2023-05-14T22:44:45.067Z,67.89
2023-05-14T22:47:15.999Z,67.76
2023-05-14T22:49:46.517Z,67.76
2023-05-14T22:52:18.872Z,68.31
2023-05-14T22:54:50.891Z,67.82
2023-05-14T22:57:21.861Z,67.21
2023-05-14T22:59:52.374Z,67.14
2023-05-14T23:02:23.380Z,67.21
2023-05-14T23:04:53.990Z,67.31
2023-05-14T23:07:26.691Z,67.61
2023-05-14T23:09:57.769Z,67.57
2023-05-14T23:12:28.637Z,67.52
2023-05-14T23:14:59.854Z,67.30
2023-05-14T23:17:31.001Z,67.67
2023-05-14T23:20:01.656Z,68.02
2023-05-14T23:22:32.609Z,68.11
2023-05-14T23:25:04.037Z,68.46
2023-05-14T23:27:34.887Z,68.32
2023-05-14T23:30:08.645Z,67.88
2023-05-14T23:32:39.284Z,67.45
2023-05-14T23:35:10.583Z,67.24
2023-05-14T23:37:46.981Z,67.10
2023-05-14T23:40:17.995Z,66.90
2023-05-14T23:42:48.528Z,66.90
2023-05-14T23:45:19.349Z,66.97
2023-05-14T23:47:52.743Z,66.53
2023-05-14T23:50:25.011Z,67.16
2023-05-14T23:52:56.347Z,67.01
2023-05-14T23:55:29.259Z,66.87
2023-05-14T23:57:59.861Z,66.97
